Time;durP1;ratioP1;P1;durP2;ratioP2;P2;SDS_P1;SDS_P2;PMS_P1;PMS_P2;Temp;Humidity;BMP_temperature;BMP_pressure;BME280_temperature;BME280_humidity;BME280_pressure;Samples;Min_cycle;Max_cycle;Signal;HPM_P1;HPM_P2
2022/09/08 00:02:26;;;;;;;1999.90;999.90;;;19.30;99.90;;;;;;6727662;88;20174;-79
2022/09/08 00:12:28;;;;;;;1999.90;999.90;;;19.00;99.90;;;;;;6718682;88;20266;-78
2022/09/08 00:22:28;;;;;;;1999.90;999.90;;;19.00;99.90;;;;;;6716699;88;20327;-78
2022/09/08 00:32:29;;;;;;;1999.90;999.90;;;18.90;99.90;;;;;;6718205;88;20197;-80
2022/09/08 00:42:29;;;;;;;1999.90;999.90;;;19.10;99.90;;;;;;6719503;88;20668;-80
2022/09/08 00:52:41;;;;;;;1999.90;999.90;;;19.10;99.90;;;;;;6719181;88;20311;-79
2022/09/08 01:02:44;;;;;;;1999.90;999.90;;;18.70;99.90;;;;;;6719205;88;20676;-78
2022/09/08 01:12:46;;;;;;;1999.90;999.90;;;18.90;99.90;;;;;;6630311;88;20777;-78
2022/09/08 01:23:18;;;;;;;1999.90;999.90;;;18.70;99.90;;;;;;6631128;88;20217;-77
2022/09/08 01:33:19;;;;;;;1999.90;999.90;;;18.60;99.90;;;;;;6631438;89;20948;-79
2022/09/08 01:43:20;;;;;;;1999.90;999.90;;;18.60;99.90;;;;;;6631850;88;20226;-78
2022/09/08 01:53:20;;;;;;;1999.90;999.90;;;18.50;99.90;;;;;;6632945;89;20196;-80
2022/09/08 02:03:21;;;;;;;1999.90;999.90;;;18.50;99.90;;;;;;6634287;89;20742;-78
2022/09/08 02:13:22;;;;;;;1999.90;999.90;;;18.40;99.90;;;;;;6633448;89;20684;-78
2022/09/08 02:23:23;;;;;;;1999.90;999.90;;;18.30;99.90;;;;;;6632731;88;20717;-78
2022/09/08 02:33:23;;;;;;;1999.90;999.90;;;18.40;99.90;;;;;;6632727;88;20386;-78
2022/09/08 02:43:24;;;;;;;1999.90;999.90;;;18.40;99.90;;;;;;6633274;89;20260;-79
2022/09/08 02:53:25;;;;;;;1999.90;999.90;;;18.50;99.90;;;;;;6631436;89;20203;-79
2022/09/08 03:03:25;;;;;;;1999.90;999.90;;;18.30;99.90;;;;;;6633393;88;20642;-78
2022/09/08 03:13:26;;;;;;;1999.90;999.90;;;17.90;99.90;;;;;;6633281;89;20211;-78
2022/09/08 03:23:27;;;;;;;1999.90;999.90;;;17.60;99.90;;;;;;6639170;89;20676;-79
2022/09/08 03:33:28;;;;;;;1999.90;999.90;;;17.30;99.90;;;;;;6632615;88;20687;-78
2022/09/08 03:43:29;;;;;;;1999.90;999.90;;;17.20;99.90;;;;;;6645507;88;20214;-79
2022/09/08 03:53:29;;;;;;;1999.90;999.90;;;17.30;99.90;;;;;;6658146;89;20250;-78
2022/09/08 04:03:30;;;;;;;1999.90;999.90;;;17.10;99.90;;;;;;6631912;89;20212;-77
2022/09/08 04:13:30;;;;;;;1999.90;999.90;;;17.00;99.90;;;;;;6643051;89;20204;-77
2022/09/08 04:23:32;;;;;;;1999.90;999.90;;;17.10;99.90;;;;;;6650234;89;20291;-76
2022/09/08 04:33:33;;;;;;;1999.90;999.90;;;17.00;99.90;;;;;;6639895;88;20530;-76
2022/09/08 04:43:34;;;;;;;1999.90;999.90;;;16.90;99.90;;;;;;6646617;88;20212;-76
2022/09/08 04:53:36;;;;;;;1999.90;999.90;;;16.90;99.90;;;;;;6648021;88;20203;-77
2022/09/08 05:03:37;;;;;;;1999.90;999.90;;;16.90;99.90;;;;;;6647390;88;20258;-77
2022/09/08 05:13:38;;;;;;;1999.90;999.90;;;16.90;99.90;;;;;;6645998;88;20209;-76
2022/09/08 05:23:38;;;;;;;1999.90;999.90;;;16.80;99.90;;;;;;6654245;88;20204;-78
2022/09/08 05:33:39;;;;;;;1999.90;999.90;;;16.90;99.90;;;;;;6652778;89;20223;-77
2022/09/08 05:43:40;;;;;;;1999.90;999.90;;;16.70;99.90;;;;;;6657234;88;20205;-77
2022/09/08 05:53:40;;;;;;;1999.90;999.90;;;16.70;99.90;;;;;;6645765;88;20649;-77
2022/09/08 06:03:41;;;;;;;1999.90;999.90;;;16.80;99.90;;;;;;6649029;88;20199;-77
2022/09/08 06:13:42;;;;;;;1999.90;999.90;;;16.80;99.90;;;;;;6651222;89;20523;-78
2022/09/08 06:23:43;;;;;;;1999.90;999.90;;;16.60;99.90;;;;;;6649471;88;20208;-77
2022/09/08 06:33:44;;;;;;;1999.90;999.90;;;16.70;99.90;;;;;;6653442;88;20197;-77
2022/09/08 06:43:52;;;;;;;1999.90;999.90;;;16.70;99.90;;;;;;6656411;89;20664;-78
2022/09/08 06:54:08;;;;;;;1999.90;999.90;;;16.80;99.90;;;;;;6680968;77;21115;-77
2022/09/08 07:04:38;;;;;;;1999.90;999.90;;;17.00;99.90;;;;;;6691115;88;20220;-76
2022/09/08 07:14:57;;;;;;;1999.90;999.90;;;17.30;99.90;;;;;;6700031;88;20230;-76
2022/09/08 07:25:13;;;;;;;1999.90;999.90;;;17.40;99.90;;;;;;6699048;88;20191;-76
2022/09/08 07:35:28;;;;;;;1999.90;999.90;;;17.60;99.90;;;;;;6704060;88;20627;-77
2022/09/08 07:45:46;;;;;;;1999.90;999.90;;;18.10;99.90;;;;;;6688284;88;20711;-79
2022/09/08 07:55:46;;;;;;;1999.90;999.90;;;18.20;99.90;;;;;;6701675;88;20214;-76
2022/09/08 08:05:50;;;;;;;1999.90;999.90;;;18.20;99.90;;;;;;6687610;88;20650;-76
2022/09/08 08:16:09;;;;;;;1999.90;999.90;;;18.20;99.90;;;;;;6678597;88;20203;-77
2022/09/08 08:26:38;;;;;;;1999.90;999.90;;;18.30;99.90;;;;;;6702231;88;20690;-76
2022/09/08 08:36:43;;;;;;;1999.90;999.90;;;18.40;99.90;;;;;;6702272;88;20275;-76
2022/09/08 08:46:50;;;;;;;1999.90;999.90;;;19.00;99.90;;;;;;6690006;88;20759;-75
2022/09/08 08:57:19;;;;;;;1999.90;999.90;;;19.70;99.90;;;;;;6679970;88;20619;-76
2022/09/08 09:07:43;;;;;;;1999.90;999.90;;;20.10;99.90;;;;;;6686411;88;20207;-76
2022/09/08 09:17:59;;;;;;;1999.90;999.90;;;21.70;99.90;;;;;;6681238;88;20218;-75
2022/09/08 09:28:22;;;;;;;1999.90;999.90;;;21.30;99.90;;;;;;6675551;88;20196;-76
2022/09/08 09:38:36;;;;;;;1999.90;999.90;;;21.60;99.90;;;;;;6693478;88;20206;-74
2022/09/08 09:49:31;;;;;;;1999.90;999.90;;;21.20;99.90;;;;;;6715861;88;20198;-75
2022/09/08 09:59:32;;;;;;;1999.90;999.90;;;20.40;99.90;;;;;;6672078;88;20179;-75
2022/09/08 10:10:00;;;;;;;1999.90;999.90;;;20.90;99.90;;;;;;6686509;88;20664;-75
2022/09/08 10:20:01;;;;;;;1999.90;999.90;;;21.80;99.90;;;;;;6684690;88;20237;-75
2022/09/08 10:30:11;;;;;;;1999.90;999.90;;;21.70;99.90;;;;;;6686950;88;20204;-75
2022/09/08 10:40:30;;;;;;;1999.90;999.90;;;21.50;99.90;;;;;;6676345;88;20768;-75
2022/09/08 10:50:32;;;;;;;1999.90;999.90;;;21.80;99.90;;;;;;6677043;88;20858;-76
2022/09/08 11:01:00;;;;;;;1999.90;999.90;;;22.20;99.90;;;;;;6679095;88;20200;-76
2022/09/08 11:11:24;;;;;;;1999.90;999.90;;;22.00;99.90;;;;;;6687470;88;20195;-76
2022/09/08 11:21:40;;;;;;;1999.90;999.90;;;23.40;99.90;;;;;;6689232;88;20214;-75
2022/09/08 11:31:46;;;;;;;1999.90;999.90;;;23.40;99.90;;;;;;6708681;88;20208;-76
2022/09/08 11:42:06;;;;;;;1999.90;999.90;;;23.70;99.90;;;;;;6675151;88;20678;-76
2022/09/08 11:52:24;;;;;;;1999.90;999.90;;;23.70;99.90;;;;;;6711560;88;20200;-75
2022/09/08 12:02:57;;;;;;;1999.90;999.90;;;22.00;99.90;;;;;;6670676;89;20240;-76
2022/09/08 12:13:18;;;;;;;1999.90;999.90;;;21.80;99.90;;;;;;6682795;88;20224;-76
2022/09/08 12:23:26;;;;;;;1999.90;999.90;;;23.50;99.90;;;;;;6673888;88;20211;-75
2022/09/08 12:33:45;;;;;;;1999.90;999.90;;;22.00;99.90;;;;;;6690474;88;20185;-76
2022/09/08 12:43:46;;;;;;;1999.90;999.90;;;21.20;99.90;;;;;;6689246;88;20183;-76
2022/09/08 13:05:02;;;;;;;1999.90;999.90;;;19.50;99.90;;;;;;6715601;88;20217;-78
2022/09/08 13:15:05;;;;;;;1999.90;999.90;;;22.00;99.90;;;;;;6700971;88;20187;-77
2022/09/08 13:25:24;;;;;;;1999.90;999.90;;;23.40;99.90;;;;;;6707196;88;20624;-77
2022/09/08 13:35:49;;;;;;;1999.90;999.90;;;24.30;99.90;;;;;;6702246;88;20193;-77
2022/09/08 13:46:06;;;;;;;1999.90;999.90;;;23.80;99.90;;;;;;6710918;88;20221;-77
2022/09/08 13:56:09;;;;;;;1999.90;999.90;;;24.70;99.90;;;;;;6709278;88;20270;-78
2022/09/08 14:06:13;;;;;;;1999.90;999.90;;;24.50;99.90;;;;;;6716197;88;20302;-78
2022/09/08 14:16:20;;;;;;;;;;;23.60;99.90;;;;;;6715269;88;20552;-77
2022/09/08 14:26:22;;;;;;;1999.90;999.90;;;23.50;99.90;;;;;;6718306;88;20136;-78
2022/09/08 14:36:41;;;;;;;1999.90;999.90;;;24.40;99.90;;;;;;6720072;88;20178;-79
2022/09/08 14:46:52;;;;;;;1999.90;999.90;;;25.00;98.40;;;;;;6703287;88;20707;-77
2022/09/08 14:57:17;;;;;;;1999.90;999.90;;;24.70;98.10;;;;;;6715321;88;20260;-78
2022/09/08 15:07:22;;;;;;;1999.90;999.90;;;23.40;99.60;;;;;;6714348;88;20205;-78
2022/09/08 15:17:33;;;;;;;1999.90;999.90;;;23.00;99.90;;;;;;6711069;88;20207;-78
2022/09/08 15:27:36;;;;;;;1999.90;999.90;;;22.80;99.90;;;;;;6713673;88;20214;-77
2022/09/08 15:38:00;;;;;;;1999.90;999.90;;;22.70;99.90;;;;;;6700039;88;20174;-77
2022/09/08 15:48:16;;;;;;;;;;;22.40;99.90;;;;;;6705736;88;20186;-78
2022/09/08 15:58:55;;;;;;;1999.90;999.90;;;22.30;99.90;;;;;;6707171;88;20100;-77
2022/09/08 16:09:15;;;;;;;1999.90;999.90;;;22.20;99.90;;;;;;6697053;88;20210;-77
2022/09/08 16:19:23;;;;;;;1999.90;999.90;;;22.20;99.90;;;;;;6701671;88;20200;-78
2022/09/08 16:29:55;;;;;;;1999.90;999.90;;;22.10;99.90;;;;;;6704314;88;20216;-77
2022/09/08 16:40:05;;;;;;;1999.90;999.90;;;21.70;99.90;;;;;;6704149;88;20742;-78
2022/09/08 16:50:11;;;;;;;1999.90;999.90;;;21.70;99.90;;;;;;6699456;88;20200;-78
2022/09/08 17:00:21;;;;;;;1999.90;999.90;;;21.10;99.90;;;;;;6701652;88;20198;-76
2022/09/08 17:10:40;;;;;;;1999.90;999.90;;;20.90;99.90;;;;;;6704198;88;20334;-77
2022/09/08 17:21:01;;;;;;;1999.90;999.90;;;20.80;99.90;;;;;;6704546;88;20654;-78
2022/09/08 17:31:08;;;;;;;1999.90;999.90;;;20.50;99.90;;;;;;6704164;88;20212;-77
2022/09/08 17:41:38;;;;;;;1999.90;999.90;;;20.30;99.90;;;;;;6704138;88;20214;-76
2022/09/08 17:51:51;;;;;;;1999.90;999.90;;;19.90;99.90;;;;;;6703145;88;20204;-77
2022/09/08 18:02:26;;;;;;;1999.90;999.90;;;19.80;99.90;;;;;;6705138;88;20186;-77
2022/09/08 18:12:28;;;;;;;;;;;19.60;99.90;;;;;;6708129;88;20204;-76
2022/09/08 18:22:49;;;;;;;1999.90;999.90;;;19.30;99.90;;;;;;6706934;88;20054;-77
2022/09/08 18:33:13;;;;;;;1999.90;999.90;;;19.30;99.90;;;;;;6704555;88;20720;-78
2022/09/08 18:43:32;;;;;;;1999.90;999.90;;;19.00;99.90;;;;;;6704067;88;20194;-77
2022/09/08 18:53:57;;;;;;;1999.90;999.90;;;18.80;99.90;;;;;;6689980;77;20192;-77
2022/09/08 19:03:58;;;;;;;1999.90;999.90;;;18.60;99.90;;;;;;6657930;89;20265;-77
2022/09/08 19:14:21;;;;;;;1999.90;999.90;;;18.50;99.90;;;;;;6658120;88;20184;-78
2022/09/08 19:24:21;;;;;;;1999.90;999.90;;;18.30;99.90;;;;;;6657720;88;20184;-77
2022/09/08 19:34:59;;;;;;;1999.90;999.90;;;18.20;99.90;;;;;;6659096;88;20191;-77
2022/09/08 19:45:22;;;;;;;1999.90;999.90;;;18.20;99.90;;;;;;6664008;88;20819;-78
2022/09/08 19:55:29;;;;;;;1999.90;999.90;;;18.20;99.90;;;;;;6654221;89;20208;-78
2022/09/08 20:05:50;;;;;;;1999.90;999.90;;;18.20;99.90;;;;;;6663519;88;20184;-77
2022/09/08 20:15:53;;;;;;;1999.90;999.90;;;18.20;99.90;;;;;;6665570;88;20274;-78
2022/09/08 20:26:03;;;;;;;1999.90;999.90;;;18.20;99.90;;;;;;6679965;89;20241;-77
2022/09/08 20:36:16;;;;;;;1999.90;999.90;;;18.40;99.90;;;;;;6670028;88;20187;-78
2022/09/08 20:46:30;;;;;;;1999.90;999.90;;;18.40;99.90;;;;;;6675893;88;20243;-78
2022/09/08 20:56:40;;;;;;;1999.90;999.90;;;18.30;99.90;;;;;;6653948;89;20703;-77
2022/09/08 21:06:43;;;;;;;1999.90;999.90;;;18.20;99.90;;;;;;6663414;88;20173;-75
2022/09/08 21:17:04;;;;;;;1999.90;999.90;;;18.00;99.90;;;;;;6663541;89;20220;-77
2022/09/08 21:27:30;;;;;;;1999.90;999.90;;;18.00;99.90;;;;;;6653332;88;20262;-77
2022/09/08 21:37:52;;;;;;;1999.90;999.90;;;18.00;99.90;;;;;;6660751;88;20333;-76
2022/09/08 21:48:05;;;;;;;1999.90;999.90;;;18.00;99.90;;;;;;6661764;88;20204;-76
2022/09/08 21:58:10;;;;;;;1999.90;999.90;;;18.20;99.90;;;;;;6657089;89;20230;-76
2022/09/08 22:08:20;;;;;;;;;;;18.30;99.90;;;;;;6659818;88;20646;-76
2022/09/08 22:18:31;;;;;;;1999.90;999.90;;;18.30;99.90;;;;;;6658898;88;20112;-77
2022/09/08 22:28:39;;;;;;;1999.90;999.90;;;18.10;99.90;;;;;;6664573;88;20292;-77
2022/09/08 22:39:05;;;;;;;1999.90;999.90;;;17.60;99.90;;;;;;6660766;88;20261;-77
2022/09/08 22:49:17;;;;;;;1999.90;999.90;;;17.50;99.90;;;;;;6657495;88;20203;-76
2022/09/08 22:59:28;;;;;;;1999.90;999.90;;;17.40;99.90;;;;;;6661118;89;20175;-76
2022/09/08 23:09:28;;;;;;;1999.90;999.90;;;17.50;99.90;;;;;;6656393;88;20818;-77
2022/09/08 23:19:40;;;;;;;1999.90;999.90;;;17.40;99.90;;;;;;6660805;89;20278;-76
2022/09/08 23:29:45;;;;;;;1999.90;999.90;;;17.30;99.90;;;;;;6659387;88;20747;-76
2022/09/08 23:40:04;;;;;;;;;;;17.30;99.90;;;;;;6662999;88;20191;-75
2022/09/08 23:50:10;;;;;;;1999.90;999.90;;;17.30;99.90;;;;;;6659116;88;20079;-75
